sensor_id;sensor_type;location;lat;lon;timestamp;pressure;altitude;pressure_sealevel;temperature;humidity
77118;BME280;66072;50.238;19.228;2024-01-30T00:02:03;100343.28;;;-4.22;100.00
77118;BME280;66072;50.238;19.228;2024-01-30T00:04:31;100344.70;;;-4.23;100.00
77118;BME280;66072;50.238;19.228;2024-01-30T00:06:58;100343.63;;;-4.24;100.00
77118;BME280;66072;50.238;19.228;2024-01-30T00:09:26;100339.52;;;-4.27;100.00
77118;BME280;66072;50.238;19.228;2024-01-30T00:11:54;100337.90;;;-4.30;100.00
77118;BME280;66072;50.238;19.228;2024-01-30T00:14:21;100332.27;;;-4.33;100.00
77118;BME280;66072;50.238;19.228;2024-01-30T00:16:50;100337.48;;;-4.36;100.00
77118;BME280;66072;50.238;19.228;2024-01-30T00:19:18;100334.17;;;-4.39;100.00
77118;BME280;66072;50.238;19.228;2024-01-30T00:21:46;100332.23;;;-4.41;100.00
77118;BME280;66072;50.238;19.228;2024-01-30T00:24:14;100330.65;;;-4.43;100.00
77118;BME280;66072;50.238;19.228;2024-01-30T00:26:42;100327.25;;;-4.45;100.00
77118;BME280;66072;50.238;19.228;2024-01-30T00:29:10;100334.78;;;-4.44;100.00
77118;BME280;66072;50.238;19.228;2024-01-30T00:31:38;100339.34;;;-4.43;100.00
77118;BME280;66072;50.238;19.228;2024-01-30T00:34:08;100340.86;;;-4.42;100.00
77118;BME280;66072;50.238;19.228;2024-01-30T00:36:37;100339.52;;;-4.43;100.00
77118;BME280;66072;50.238;19.228;2024-01-30T00:39:04;100338.48;;;-4.44;100.00
77118;BME280;66072;50.238;19.228;2024-01-30T00:41:32;100333.51;;;-4.43;100.00
77118;BME280;66072;50.238;19.228;2024-01-30T00:44:00;100334.82;;;-4.43;100.00
77118;BME280;66072;50.238;19.228;2024-01-30T00:46:27;100333.35;;;-4.42;100.00
77118;BME280;66072;50.238;19.228;2024-01-30T00:48:55;100326.59;;;-4.44;100.00
77118;BME280;66072;50.238;19.228;2024-01-30T00:51:23;100327.77;;;-4.44;100.00
77118;BME280;66072;50.238;19.228;2024-01-30T00:53:51;100325.77;;;-4.44;100.00
77118;BME280;66072;50.238;19.228;2024-01-30T00:56:19;100326.73;;;-4.45;100.00
77118;BME280;66072;50.238;19.228;2024-01-30T00:58:46;100327.05;;;-4.45;100.00
77118;BME280;66072;50.238;19.228;2024-01-30T01:01:14;100321.03;;;-4.46;100.00
77118;BME280;66072;50.238;19.228;2024-01-30T01:03:42;100324.81;;;-4.47;100.00
77118;BME280;66072;50.238;19.228;2024-01-30T01:06:10;100317.93;;;-4.48;100.00
77118;BME280;66072;50.238;19.228;2024-01-30T01:08:38;100316.05;;;-4.48;100.00
77118;BME280;66072;50.238;19.228;2024-01-30T01:11:06;100315.04;;;-4.49;100.00
77118;BME280;66072;50.238;19.228;2024-01-30T01:13:34;100310.35;;;-4.49;100.00
77118;BME280;66072;50.238;19.228;2024-01-30T01:16:01;100314.34;;;-4.49;100.00
77118;BME280;66072;50.238;19.228;2024-01-30T01:18:29;100309.13;;;-4.51;100.00
77118;BME280;66072;50.238;19.228;2024-01-30T01:20:57;100306.89;;;-4.52;100.00
77118;BME280;66072;50.238;19.228;2024-01-30T01:23:25;100305.16;;;-4.53;100.00
77118;BME280;66072;50.238;19.228;2024-01-30T01:25:53;100302.20;;;-4.56;100.00
77118;BME280;66072;50.238;19.228;2024-01-30T01:28:22;100300.02;;;-4.56;100.00
77118;BME280;66072;50.238;19.228;2024-01-30T01:30:50;100298.09;;;-4.55;100.00
77118;BME280;66072;50.238;19.228;2024-01-30T01:33:18;100299.80;;;-4.54;100.00
77118;BME280;66072;50.238;19.228;2024-01-30T01:35:46;100294.06;;;-4.51;100.00
77118;BME280;66072;50.238;19.228;2024-01-30T01:38:13;100294.24;;;-4.51;100.00
77118;BME280;66072;50.238;19.228;2024-01-30T01:40:41;100292.23;;;-4.51;100.00
77118;BME280;66072;50.238;19.228;2024-01-30T01:43:09;100291.07;;;-4.51;100.00
77118;BME280;66072;50.238;19.228;2024-01-30T01:45:37;100289.41;;;-4.50;100.00
77118;BME280;66072;50.238;19.228;2024-01-30T01:48:05;100286.80;;;-4.49;100.00
77118;BME280;66072;50.238;19.228;2024-01-30T01:50:33;100285.97;;;-4.49;100.00
77118;BME280;66072;50.238;19.228;2024-01-30T01:53:01;100285.66;;;-4.49;100.00
77118;BME280;66072;50.238;19.228;2024-01-30T01:55:30;100279.70;;;-4.48;100.00
77118;BME280;66072;50.238;19.228;2024-01-30T01:57:58;100284.55;;;-4.48;100.00
77118;BME280;66072;50.238;19.228;2024-01-30T02:00:26;100286.09;;;-4.47;100.00
77118;BME280;66072;50.238;19.228;2024-01-30T02:02:54;100287.44;;;-4.47;100.00
77118;BME280;66072;50.238;19.228;2024-01-30T02:05:22;100287.18;;;-4.45;100.00
77118;BME280;66072;50.238;19.228;2024-01-30T02:07:51;100289.35;;;-4.44;100.00
77118;BME280;66072;50.238;19.228;2024-01-30T02:10:18;100285.19;;;-4.44;100.00
77118;BME280;66072;50.238;19.228;2024-01-30T02:12:46;100286.46;;;-4.42;100.00
77118;BME280;66072;50.238;19.228;2024-01-30T02:15:14;100285.33;;;-4.41;100.00
77118;BME280;66072;50.238;19.228;2024-01-30T02:17:42;100285.29;;;-4.42;100.00
77118;BME280;66072;50.238;19.228;2024-01-30T02:20:10;100284.90;;;-4.43;100.00
77118;BME280;66072;50.238;19.228;2024-01-30T02:22:38;100286.72;;;-4.43;100.00
77118;BME280;66072;50.238;19.228;2024-01-30T02:25:08;100282.67;;;-4.44;100.00
77118;BME280;66072;50.238;19.228;2024-01-30T02:27:36;100282.17;;;-4.45;100.00
77118;BME280;66072;50.238;19.228;2024-01-30T02:30:04;100283.75;;;-4.46;100.00
77118;BME280;66072;50.238;19.228;2024-01-30T02:32:32;100282.96;;;-4.49;100.00
77118;BME280;66072;50.238;19.228;2024-01-30T02:35:00;100283.78;;;-4.49;100.00
77118;BME280;66072;50.238;19.228;2024-01-30T02:37:27;100285.16;;;-4.48;100.00
77118;BME280;66072;50.238;19.228;2024-01-30T02:39:55;100279.85;;;-4.48;100.00
77118;BME280;66072;50.238;19.228;2024-01-30T02:42:23;100279.90;;;-4.51;100.00
77118;BME280;66072;50.238;19.228;2024-01-30T02:44:51;100279.55;;;-4.55;100.00
77118;BME280;66072;50.238;19.228;2024-01-30T02:47:18;100276.60;;;-4.57;100.00
77118;BME280;66072;50.238;19.228;2024-01-30T02:49:46;100277.26;;;-4.58;100.00
77118;BME280;66072;50.238;19.228;2024-01-30T02:52:14;100275.48;;;-4.56;100.00
77118;BME280;66072;50.238;19.228;2024-01-30T02:54:42;100274.85;;;-4.52;100.00
77118;BME280;66072;50.238;19.228;2024-01-30T02:57:09;100272.52;;;-4.48;100.00
77118;BME280;66072;50.238;19.228;2024-01-30T02:59:37;100269.56;;;-4.43;100.00
77118;BME280;66072;50.238;19.228;2024-01-30T03:02:05;100271.03;;;-4.40;100.00
77118;BME280;66072;50.238;19.228;2024-01-30T03:04:33;100268.81;;;-4.37;100.00
77118;BME280;66072;50.238;19.228;2024-01-30T03:07:01;100266.46;;;-4.33;100.00
77118;BME280;66072;50.238;19.228;2024-01-30T03:09:28;100265.23;;;-4.30;100.00
77118;BME280;66072;50.238;19.228;2024-01-30T03:11:56;100271.50;;;-4.28;100.00
77118;BME280;66072;50.238;19.228;2024-01-30T03:14:24;100267.38;;;-4.27;100.00
77118;BME280;66072;50.238;19.228;2024-01-30T03:16:51;100274.45;;;-4.25;100.00
77118;BME280;66072;50.238;19.228;2024-01-30T03:19:19;100271.08;;;-4.26;100.00
77118;BME280;66072;50.238;19.228;2024-01-30T03:21:47;100268.86;;;-4.27;100.00
77118;BME280;66072;50.238;19.228;2024-01-30T03:24:15;100268.52;;;-4.32;100.00
77118;BME280;66072;50.238;19.228;2024-01-30T03:26:43;100261.98;;;-4.36;100.00
77118;BME280;66072;50.238;19.228;2024-01-30T03:29:11;100263.45;;;-4.41;100.00
77118;BME280;66072;50.238;19.228;2024-01-30T03:31:39;100262.60;;;-4.45;100.00
77118;BME280;66072;50.238;19.228;2024-01-30T03:34:07;100260.52;;;-4.51;100.00
77118;BME280;66072;50.238;19.228;2024-01-30T03:36:35;100263.84;;;-4.55;100.00
77118;BME280;66072;50.238;19.228;2024-01-30T03:39:02;100261.27;;;-4.56;100.00
77118;BME280;66072;50.238;19.228;2024-01-30T03:41:30;100262.75;;;-4.57;100.00
77118;BME280;66072;50.238;19.228;2024-01-30T03:43:58;100263.22;;;-4.58;100.00
77118;BME280;66072;50.238;19.228;2024-01-30T03:46:26;100263.52;;;-4.59;100.00
77118;BME280;66072;50.238;19.228;2024-01-30T03:48:54;100264.67;;;-4.59;100.00
77118;BME280;66072;50.238;19.228;2024-01-30T03:51:21;100263.84;;;-4.60;100.00
77118;BME280;66072;50.238;19.228;2024-01-30T03:53:49;100263.66;;;-4.60;100.00
77118;BME280;66072;50.238;19.228;2024-01-30T03:56:17;100263.06;;;-4.61;100.00
77118;BME280;66072;50.238;19.228;2024-01-30T03:58:44;100258.85;;;-4.63;100.00
77118;BME280;66072;50.238;19.228;2024-01-30T04:01:15;100256.17;;;-4.63;100.00
77118;BME280;66072;50.238;19.228;2024-01-30T04:03:43;100257.25;;;-4.61;100.00
77118;BME280;66072;50.238;19.228;2024-01-30T04:06:11;100258.43;;;-4.57;100.00
77118;BME280;66072;50.238;19.228;2024-01-30T04:08:39;100258.80;;;-4.52;100.00
77118;BME280;66072;50.238;19.228;2024-01-30T04:11:07;100256.84;;;-4.47;100.00
77118;BME280;66072;50.238;19.228;2024-01-30T04:13:34;100258.39;;;-4.47;100.00
77118;BME280;66072;50.238;19.228;2024-01-30T04:16:02;100259.75;;;-4.38;100.00
77118;BME280;66072;50.238;19.228;2024-01-30T04:18:30;100255.50;;;-4.16;100.00
77118;BME280;66072;50.238;19.228;2024-01-30T04:20:58;100257.13;;;-3.96;100.00
77118;BME280;66072;50.238;19.228;2024-01-30T04:23:25;100256.39;;;-3.81;100.00
77118;BME280;66072;50.238;19.228;2024-01-30T04:25:53;100253.16;;;-3.74;100.00
77118;BME280;66072;50.238;19.228;2024-01-30T04:28:21;100253.45;;;-3.71;100.00
77118;BME280;66072;50.238;19.228;2024-01-30T04:30:48;100250.90;;;-3.68;100.00
77118;BME280;66072;50.238;19.228;2024-01-30T04:33:16;100248.53;;;-3.68;100.00
77118;BME280;66072;50.238;19.228;2024-01-30T04:35:44;100246.60;;;-3.71;100.00
77118;BME280;66072;50.238;19.228;2024-01-30T04:38:12;100251.48;;;-3.74;100.00
77118;BME280;66072;50.238;19.228;2024-01-30T04:40:40;100246.33;;;-3.77;100.00
77118;BME280;66072;50.238;19.228;2024-01-30T04:43:08;100251.27;;;-3.80;100.00
77118;BME280;66072;50.238;19.228;2024-01-30T04:45:36;100252.84;;;-3.82;100.00
77118;BME280;66072;50.238;19.228;2024-01-30T04:48:03;100258.55;;;-3.86;100.00
77118;BME280;66072;50.238;19.228;2024-01-30T04:50:31;100257.46;;;-3.88;100.00
77118;BME280;66072;50.238;19.228;2024-01-30T04:52:59;100259.20;;;-3.90;100.00
77118;BME280;66072;50.238;19.228;2024-01-30T04:55:27;100259.02;;;-3.95;100.00
77118;BME280;66072;50.238;19.228;2024-01-30T04:57:54;100254.53;;;-3.98;100.00
77118;BME280;66072;50.238;19.228;2024-01-30T05:00:22;100260.68;;;-3.99;100.00
77118;BME280;66072;50.238;19.228;2024-01-30T05:02:50;100260.59;;;-3.97;100.00
77118;BME280;66072;50.238;19.228;2024-01-30T05:05:17;100263.33;;;-3.96;100.00
77118;BME280;66072;50.238;19.228;2024-01-30T05:07:45;100262.73;;;-3.98;100.00
77118;BME280;66072;50.238;19.228;2024-01-30T05:10:13;100260.86;;;-4.03;100.00
77118;BME280;66072;50.238;19.228;2024-01-30T05:12:41;100257.43;;;-4.05;100.00
77118;BME280;66072;50.238;19.228;2024-01-30T05:15:09;100253.05;;;-4.06;100.00
77118;BME280;66072;50.238;19.228;2024-01-30T05:17:37;100251.32;;;-4.03;100.00
77118;BME280;66072;50.238;19.228;2024-01-30T05:20:05;100253.88;;;-3.98;100.00
77118;BME280;66072;50.238;19.228;2024-01-30T05:22:33;100251.40;;;-3.93;100.00
77118;BME280;66072;50.238;19.228;2024-01-30T05:25:01;100252.44;;;-3.92;100.00
77118;BME280;66072;50.238;19.228;2024-01-30T05:27:28;100251.14;;;-3.87;100.00
77118;BME280;66072;50.238;19.228;2024-01-30T05:29:56;100255.26;;;-3.80;100.00
77118;BME280;66072;50.238;19.228;2024-01-30T05:32:24;100248.76;;;-3.75;100.00
77118;BME280;66072;50.238;19.228;2024-01-30T05:34:52;100247.93;;;-3.71;100.00
77118;BME280;66072;50.238;19.228;2024-01-30T05:37:19;100252.09;;;-3.71;100.00
77118;BME280;66072;50.238;19.228;2024-01-30T05:39:47;100249.38;;;-3.73;100.00
77118;BME280;66072;50.238;19.228;2024-01-30T05:42:15;100250.88;;;-3.72;100.00
77118;BME280;66072;50.238;19.228;2024-01-30T05:44:43;100256.92;;;-3.71;100.00
77118;BME280;66072;50.238;19.228;2024-01-30T05:47:11;100257.23;;;-3.73;100.00
77118;BME280;66072;50.238;19.228;2024-01-30T05:49:38;100257.38;;;-3.73;100.00
77118;BME280;66072;50.238;19.228;2024-01-30T05:52:06;100258.52;;;-3.73;100.00
77118;BME280;66072;50.238;19.228;2024-01-30T05:54:34;100253.64;;;-3.74;100.00
77118;BME280;66072;50.238;19.228;2024-01-30T05:57:02;100258.23;;;-3.77;100.00
77118;BME280;66072;50.238;19.228;2024-01-30T05:59:29;100262.06;;;-3.82;100.00
77118;BME280;66072;50.238;19.228;2024-01-30T06:01:57;100264.60;;;-3.85;100.00
77118;BME280;66072;50.238;19.228;2024-01-30T06:04:25;100265.98;;;-3.92;100.00
77118;BME280;66072;50.238;19.228;2024-01-30T06:06:53;100264.68;;;-3.99;100.00
77118;BME280;66072;50.238;19.228;2024-01-30T06:09:21;100261.05;;;-4.02;100.00
77118;BME280;66072;50.238;19.228;2024-01-30T06:11:49;100268.61;;;-4.05;100.00
77118;BME280;66072;50.238;19.228;2024-01-30T06:14:16;100270.54;;;-4.11;100.00
77118;BME280;66072;50.238;19.228;2024-01-30T06:16:44;100264.59;;;-4.18;100.00
77118;BME280;66072;50.238;19.228;2024-01-30T06:19:12;100265.36;;;-4.23;100.00
77118;BME280;66072;50.238;19.228;2024-01-30T06:21:40;100268.66;;;-4.28;100.00
77118;BME280;66072;50.238;19.228;2024-01-30T06:24:07;100268.65;;;-4.33;100.00
77118;BME280;66072;50.238;19.228;2024-01-30T06:26:35;100268.75;;;-4.34;100.00
77118;BME280;66072;50.238;19.228;2024-01-30T06:29:03;100268.57;;;-4.35;100.00
77118;BME280;66072;50.238;19.228;2024-01-30T06:31:31;100265.91;;;-4.35;100.00
77118;BME280;66072;50.238;19.228;2024-01-30T06:33:59;100262.19;;;-4.31;100.00
77118;BME280;66072;50.238;19.228;2024-01-30T06:36:26;100259.27;;;-4.29;100.00
77118;BME280;66072;50.238;19.228;2024-01-30T06:38:54;100264.29;;;-4.25;100.00
77118;BME280;66072;50.238;19.228;2024-01-30T06:41:22;100264.71;;;-4.18;100.00
77118;BME280;66072;50.238;19.228;2024-01-30T06:43:50;100262.73;;;-4.14;100.00
77118;BME280;66072;50.238;19.228;2024-01-30T06:46:17;100259.30;;;-4.12;100.00
77118;BME280;66072;50.238;19.228;2024-01-30T06:48:45;100263.01;;;-4.08;100.00
77118;BME280;66072;50.238;19.228;2024-01-30T06:51:13;100262.10;;;-3.97;100.00
77118;BME280;66072;50.238;19.228;2024-01-30T06:53:44;100265.97;;;-3.88;100.00
77118;BME280;66072;50.238;19.228;2024-01-30T06:56:12;100264.17;;;-3.79;100.00
77118;BME280;66072;50.238;19.228;2024-01-30T06:58:40;100261.75;;;-3.68;100.00
77118;BME280;66072;50.238;19.228;2024-01-30T07:01:07;100260.35;;;-3.61;100.00
77118;BME280;66072;50.238;19.228;2024-01-30T07:03:35;100261.84;;;-3.53;100.00
77118;BME280;66072;50.238;19.228;2024-01-30T07:06:03;100266.86;;;-3.44;100.00
77118;BME280;66072;50.238;19.228;2024-01-30T07:08:31;100273.23;;;-3.35;100.00
77118;BME280;66072;50.238;19.228;2024-01-30T07:10:59;100275.65;;;-3.25;100.00
77118;BME280;66072;50.238;19.228;2024-01-30T07:13:28;100276.89;;;-3.14;100.00
77118;BME280;66072;50.238;19.228;2024-01-30T07:15:55;100274.72;;;-3.05;100.00
77118;BME280;66072;50.238;19.228;2024-01-30T07:18:23;100282.72;;;-2.96;100.00
77118;BME280;66072;50.238;19.228;2024-01-30T07:20:51;100284.50;;;-2.89;100.00
77118;BME280;66072;50.238;19.228;2024-01-30T07:23:19;100286.42;;;-2.83;100.00
77118;BME280;66072;50.238;19.228;2024-01-30T07:25:46;100289.25;;;-2.74;100.00
77118;BME280;66072;50.238;19.228;2024-01-30T07:28:16;100285.73;;;-2.65;100.00
77118;BME280;66072;50.238;19.228;2024-01-30T07:30:45;100286.69;;;-2.56;100.00
77118;BME280;66072;50.238;19.228;2024-01-30T07:33:12;100287.13;;;-2.49;100.00
77118;BME280;66072;50.238;19.228;2024-01-30T07:35:41;100288.73;;;-2.41;100.00
77118;BME280;66072;50.238;19.228;2024-01-30T07:38:08;100285.45;;;-2.34;100.00
77118;BME280;66072;50.238;19.228;2024-01-30T07:40:36;100287.17;;;-2.28;100.00
77118;BME280;66072;50.238;19.228;2024-01-30T07:43:04;100282.56;;;-2.21;100.00
77118;BME280;66072;50.238;19.228;2024-01-30T07:45:31;100279.98;;;-2.13;100.00
77118;BME280;66072;50.238;19.228;2024-01-30T07:47:59;100276.55;;;-2.06;100.00
77118;BME280;66072;50.238;19.228;2024-01-30T07:50:27;100272.45;;;-1.98;100.00
77118;BME280;66072;50.238;19.228;2024-01-30T07:52:59;100269.55;;;-1.89;100.00
77118;BME280;66072;50.238;19.228;2024-01-30T07:55:27;100263.98;;;-1.80;100.00
77118;BME280;66072;50.238;19.228;2024-01-30T07:57:55;100268.23;;;-1.73;100.00
77118;BME280;66072;50.238;19.228;2024-01-30T08:00:23;100265.14;;;-1.65;100.00
77118;BME280;66072;50.238;19.228;2024-01-30T08:02:51;100274.23;;;-1.58;100.00
77118;BME280;66072;50.238;19.228;2024-01-30T08:05:19;100276.12;;;-1.51;100.00
77118;BME280;66072;50.238;19.228;2024-01-30T08:07:46;100278.15;;;-1.45;100.00
77118;BME280;66072;50.238;19.228;2024-01-30T08:10:15;100278.90;;;-1.38;100.00
77118;BME280;66072;50.238;19.228;2024-01-30T08:12:43;100281.75;;;-1.32;100.00
77118;BME280;66072;50.238;19.228;2024-01-30T08:15:11;100283.27;;;-1.26;100.00
77118;BME280;66072;50.238;19.228;2024-01-30T08:17:39;100284.83;;;-1.19;100.00
77118;BME280;66072;50.238;19.228;2024-01-30T08:20:07;100286.68;;;-1.14;100.00
77118;BME280;66072;50.238;19.228;2024-01-30T08:22:38;100286.48;;;-1.08;100.00
77118;BME280;66072;50.238;19.228;2024-01-30T08:25:06;100284.59;;;-1.04;100.00
77118;BME280;66072;50.238;19.228;2024-01-30T08:27:34;100286.44;;;-0.98;100.00
77118;BME280;66072;50.238;19.228;2024-01-30T08:30:02;100284.10;;;-0.93;99.98
77118;BME280;66072;50.238;19.228;2024-01-30T08:32:30;100283.75;;;-0.87;99.73
77118;BME280;66072;50.238;19.228;2024-01-30T08:34:58;100283.95;;;-0.80;99.66
77118;BME280;66072;50.238;19.228;2024-01-30T08:37:26;100284.32;;;-0.73;99.35
77118;BME280;66072;50.238;19.228;2024-01-30T08:39:54;100280.45;;;-0.67;99.03
77118;BME280;66072;50.238;19.228;2024-01-30T08:42:22;100285.54;;;-0.60;98.93
77118;BME280;66072;50.238;19.228;2024-01-30T08:44:50;100287.55;;;-0.53;98.42
77118;BME280;66072;50.238;19.228;2024-01-30T08:47:18;100285.39;;;-0.47;98.05
77118;BME280;66072;50.238;19.228;2024-01-30T08:49:45;100287.23;;;-0.41;97.75
77118;BME280;66072;50.238;19.228;2024-01-30T08:52:13;100290.60;;;-0.34;97.81
77118;BME280;66072;50.238;19.228;2024-01-30T08:54:41;100290.34;;;-0.25;97.55
77118;BME280;66072;50.238;19.228;2024-01-30T08:57:09;100288.83;;;-0.19;96.88
77118;BME280;66072;50.238;19.228;2024-01-30T08:59:36;100289.52;;;-0.12;96.49
77118;BME280;66072;50.238;19.228;2024-01-30T09:02:04;100290.52;;;-0.06;96.23
77118;BME280;66072;50.238;19.228;2024-01-30T09:04:39;100287.34;;;0.02;94.88
77118;BME280;66072;50.238;19.228;2024-01-30T09:07:09;100285.20;;;0.11;94.84
77118;BME280;66072;50.238;19.228;2024-01-30T09:09:38;100281.70;;;0.18;94.36
77118;BME280;66072;50.238;19.228;2024-01-30T09:12:06;100279.02;;;0.26;93.85
77118;BME280;66072;50.238;19.228;2024-01-30T09:14:34;100276.70;;;0.34;94.19
77118;BME280;66072;50.238;19.228;2024-01-30T09:17:02;100278.92;;;0.43;93.73
77118;BME280;66072;50.238;19.228;2024-01-30T09:19:30;100280.96;;;0.51;92.43
77118;BME280;66072;50.238;19.228;2024-01-30T09:21:58;100282.13;;;0.58;93.18
77118;BME280;66072;50.238;19.228;2024-01-30T09:24:26;100280.96;;;0.66;92.64
77118;BME280;66072;50.238;19.228;2024-01-30T09:26:55;100281.64;;;0.73;91.17
77118;BME280;66072;50.238;19.228;2024-01-30T09:29:22;100280.66;;;0.82;89.80
77118;BME280;66072;50.238;19.228;2024-01-30T09:31:50;100283.52;;;0.90;89.97
77118;BME280;66072;50.238;19.228;2024-01-30T09:34:18;100284.86;;;0.96;90.57
77118;BME280;66072;50.238;19.228;2024-01-30T09:36:46;100284.64;;;1.03;90.46
77118;BME280;66072;50.238;19.228;2024-01-30T09:39:14;100281.44;;;1.11;89.68
77118;BME280;66072;50.238;19.228;2024-01-30T09:41:48;100280.27;;;1.19;88.97
77118;BME280;66072;50.238;19.228;2024-01-30T09:44:16;100281.11;;;1.27;89.02
77118;BME280;66072;50.238;19.228;2024-01-30T09:46:46;100280.75;;;1.35;88.98
77118;BME280;66072;50.238;19.228;2024-01-30T09:49:15;100281.24;;;1.43;89.09
77118;BME280;66072;50.238;19.228;2024-01-30T09:51:46;100279.70;;;1.50;88.20
77118;BME280;66072;50.238;19.228;2024-01-30T09:54:15;100273.92;;;1.56;87.90
77118;BME280;66072;50.238;19.228;2024-01-30T09:56:43;100269.88;;;1.66;88.17
77118;BME280;66072;50.238;19.228;2024-01-30T09:59:11;100270.37;;;1.74;87.95
77118;BME280;66072;50.238;19.228;2024-01-30T10:01:39;100267.50;;;1.82;87.53
77118;BME280;66072;50.238;19.228;2024-01-30T10:04:07;100265.43;;;1.91;87.52
77118;BME280;66072;50.238;19.228;2024-01-30T10:06:37;100260.21;;;2.00;86.59
77118;BME280;66072;50.238;19.228;2024-01-30T10:09:05;100257.50;;;2.09;84.95
77118;BME280;66072;50.238;19.228;2024-01-30T10:11:32;100255.64;;;2.20;85.22
77118;BME280;66072;50.238;19.228;2024-01-30T10:14:00;100253.77;;;2.30;85.86
77118;BME280;66072;50.238;19.228;2024-01-30T10:16:28;100251.57;;;2.39;85.86
77118;BME280;66072;50.238;19.228;2024-01-30T10:18:56;100249.52;;;2.50;84.72
77118;BME280;66072;50.238;19.228;2024-01-30T10:21:24;100243.11;;;2.62;83.91
77118;BME280;66072;50.238;19.228;2024-01-30T10:23:52;100237.69;;;2.72;84.05
77118;BME280;66072;50.238;19.228;2024-01-30T10:26:20;100237.80;;;2.81;83.41
77118;BME280;66072;50.238;19.228;2024-01-30T10:28:48;100233.85;;;2.89;82.24
77118;BME280;66072;50.238;19.228;2024-01-30T10:31:17;100232.45;;;2.98;80.92
77118;BME280;66072;50.238;19.228;2024-01-30T10:33:44;100228.85;;;3.07;81.20
77118;BME280;66072;50.238;19.228;2024-01-30T10:36:14;100229.16;;;3.18;81.14
77118;BME280;66072;50.238;19.228;2024-01-30T10:38:46;100219.96;;;3.29;80.82
77118;BME280;66072;50.238;19.228;2024-01-30T10:41:19;100216.69;;;3.37;80.01
77118;BME280;66072;50.238;19.228;2024-01-30T10:44:02;100219.83;;;3.46;79.99
77118;BME280;66072;50.238;19.228;2024-01-30T10:46:31;100214.52;;;3.57;79.32
77118;BME280;66072;50.238;19.228;2024-01-30T10:49:00;100208.51;;;3.64;77.68
77118;BME280;66072;50.238;19.228;2024-01-30T10:51:28;100207.05;;;3.71;76.83
77118;BME280;66072;50.238;19.228;2024-01-30T10:53:56;100203.54;;;3.77;77.23
77118;BME280;66072;50.238;19.228;2024-01-30T10:56:25;100203.27;;;3.84;76.45
77118;BME280;66072;50.238;19.228;2024-01-30T10:58:53;100199.10;;;3.91;75.81
77118;BME280;66072;50.238;19.228;2024-01-30T11:01:22;100196.80;;;4.00;75.69
77118;BME280;66072;50.238;19.228;2024-01-30T11:03:51;100196.02;;;4.08;74.78
77118;BME280;66072;50.238;19.228;2024-01-30T11:06:24;100191.48;;;4.15;74.03
77118;BME280;66072;50.238;19.228;2024-01-30T11:09:02;100184.10;;;4.22;74.04
77118;BME280;66072;50.238;19.228;2024-01-30T11:11:30;100189.39;;;4.29;74.23
77118;BME280;66072;50.238;19.228;2024-01-30T11:14:00;100185.21;;;4.37;73.76
77118;BME280;66072;50.238;19.228;2024-01-30T11:16:32;100182.55;;;4.44;72.93
77118;BME280;66072;50.238;19.228;2024-01-30T11:19:00;100185.66;;;4.54;73.81
77118;BME280;66072;50.238;19.228;2024-01-30T11:21:28;100187.41;;;4.64;72.57
77118;BME280;66072;50.238;19.228;2024-01-30T11:23:56;100188.98;;;4.74;71.43
77118;BME280;66072;50.238;19.228;2024-01-30T11:26:27;100183.77;;;4.84;71.72
77118;BME280;66072;50.238;19.228;2024-01-30T11:28:55;100177.54;;;4.93;69.75
77118;BME280;66072;50.238;19.228;2024-01-30T11:31:23;100172.81;;;5.00;70.26
77118;BME280;66072;50.238;19.228;2024-01-30T11:33:52;100172.68;;;5.08;68.72
77118;BME280;66072;50.238;19.228;2024-01-30T11:36:25;100169.14;;;5.16;69.67
77118;BME280;66072;50.238;19.228;2024-01-30T11:38:54;100162.89;;;5.25;69.40
77118;BME280;66072;50.238;19.228;2024-01-30T11:41:22;100158.84;;;5.33;67.80
77118;BME280;66072;50.238;19.228;2024-01-30T11:43:52;100156.98;;;5.41;68.03
77118;BME280;66072;50.238;19.228;2024-01-30T11:46:20;100152.75;;;5.49;66.60
77118;BME280;66072;50.238;19.228;2024-01-30T11:48:48;100152.59;;;5.57;67.43
77118;BME280;66072;50.238;19.228;2024-01-30T11:51:16;100147.18;;;5.64;67.60
77118;BME280;66072;50.238;19.228;2024-01-30T11:53:44;100150.91;;;5.72;66.05
77118;BME280;66072;50.238;19.228;2024-01-30T11:56:12;100144.46;;;5.81;64.90
77118;BME280;66072;50.238;19.228;2024-01-30T11:58:42;100137.48;;;5.88;65.31
77118;BME280;66072;50.238;19.228;2024-01-30T12:01:11;100135.31;;;5.96;65.88
77118;BME280;66072;50.238;19.228;2024-01-30T12:03:39;100137.84;;;6.05;65.90
77118;BME280;66072;50.238;19.228;2024-01-30T12:06:06;100135.98;;;6.12;65.61
77118;BME280;66072;50.238;19.228;2024-01-30T12:08:34;100130.52;;;6.20;63.44
77118;BME280;66072;50.238;19.228;2024-01-30T12:11:02;100129.33;;;6.27;64.31
77118;BME280;66072;50.238;19.228;2024-01-30T12:13:30;100124.71;;;6.33;62.25
77118;BME280;66072;50.238;19.228;2024-01-30T12:16:00;100121.48;;;6.40;62.48
77118;BME280;66072;50.238;19.228;2024-01-30T12:18:29;100116.52;;;6.47;61.87
77118;BME280;66072;50.238;19.228;2024-01-30T12:21:07;100116.85;;;6.52;59.76
77118;BME280;66072;50.238;19.228;2024-01-30T12:23:35;100115.80;;;6.56;59.20
77118;BME280;66072;50.238;19.228;2024-01-30T12:26:04;100108.14;;;6.61;60.10
77118;BME280;66072;50.238;19.228;2024-01-30T12:28:32;100102.52;;;6.66;60.90
77118;BME280;66072;50.238;19.228;2024-01-30T12:31:05;100101.98;;;6.70;59.22
77118;BME280;66072;50.238;19.228;2024-01-30T12:33:33;100103.84;;;6.74;57.85
77118;BME280;66072;50.238;19.228;2024-01-30T12:36:03;100099.06;;;6.78;58.22
77118;BME280;66072;50.238;19.228;2024-01-30T12:38:31;100095.30;;;6.80;58.88
77118;BME280;66072;50.238;19.228;2024-01-30T12:40:59;100096.30;;;6.84;58.74